createdAt,value
2023-06-28T00:00:56.028Z,101308.78
2023-06-28T00:03:42.278Z,101307.31
2023-06-28T00:06:28.582Z,101306.88
2023-06-28T00:09:14.387Z,101309.16
2023-06-28T00:12:00.431Z,101313.31
2023-06-28T00:14:46.294Z,101311.00
2023-06-28T00:17:34.249Z,101317.22
2023-06-28T00:20:20.661Z,101307.63
2023-06-28T00:23:06.768Z,101319.94
2023-06-28T00:25:52.988Z,101320.94
2023-06-28T00:28:38.999Z,101314.28
2023-06-28T00:31:28.002Z,101320.72
2023-06-28T00:34:17.326Z,101316.50
2023-06-28T00:37:03.174Z,101319.88
2023-06-28T00:39:49.215Z,101318.94
2023-06-28T00:42:35.241Z,101319.78
2023-06-28T00:45:21.445Z,101320.88
2023-06-28T00:48:09.162Z,101325.22
2023-06-28T00:50:56.657Z,101315.88
2023-06-28T00:53:43.071Z,101326.22
2023-06-28T00:56:29.643Z,101318.94
2023-06-28T00:59:16.493Z,101325.31
2023-06-28T01:02:03.557Z,101320.44
2023-06-28T01:04:51.101Z,101322.50
2023-06-28T01:07:39.157Z,101326.47
2023-06-28T01:10:25.438Z,101318.94
2023-06-28T01:13:11.739Z,101323.34
2023-06-28T01:15:57.941Z,101326.47
2023-06-28T01:18:43.908Z,101327.66
2023-06-28T01:21:34.707Z,101335.47
2023-06-28T01:24:22.969Z,101331.00
2023-06-28T01:27:11.014Z,101333.25
2023-06-28T01:29:58.669Z,101331.97
2023-06-28T01:32:45.360Z,101339.31
2023-06-28T01:35:32.838Z,101342.25
2023-06-28T01:38:19.827Z,101340.19
2023-06-28T01:41:07.764Z,101337.97
2023-06-28T01:43:54.422Z,101341.63
2023-06-28T01:46:41.067Z,101343.44
2023-06-28T01:49:27.480Z,101347.81
2023-06-28T01:52:13.402Z,101337.88
2023-06-28T01:54:59.251Z,101349.06
2023-06-28T01:57:47.048Z,101345.59
2023-06-28T02:00:33.032Z,101351.28
2023-06-28T02:03:19.143Z,101346.38
2023-06-28T02:06:05.679Z,101342.53
2023-06-28T02:08:51.653Z,101340.03
2023-06-28T02:11:37.518Z,101349.72
2023-06-28T02:14:25.238Z,101343.28
2023-06-28T02:17:15.044Z,101346.63
2023-06-28T02:20:02.150Z,101336.31
2023-06-28T02:22:48.429Z,101330.84
2023-06-28T02:25:34.389Z,101339.09
2023-06-28T02:28:22.295Z,101329.59
2023-06-28T02:31:09.942Z,101335.84
2023-06-28T02:33:56.342Z,101336.13
2023-06-28T02:36:42.324Z,101331.88
2023-06-28T02:39:29.196Z,101337.88
2023-06-28T02:42:15.601Z,101334.59
2023-06-28T02:45:02.006Z,101335.69
2023-06-28T02:47:49.764Z,101337.34
2023-06-28T02:50:36.343Z,101344.19
2023-06-28T02:53:27.140Z,101344.19
2023-06-28T02:56:16.408Z,101345.88
2023-06-28T02:59:23.564Z,101352.75
2023-06-28T03:02:12.465Z,101345.63
2023-06-28T03:04:59.695Z,101352.75
2023-06-28T03:07:46.322Z,101352.41
2023-06-28T03:10:32.236Z,101359.06
2023-06-28T03:13:18.321Z,101351.78
2023-06-28T03:16:05.106Z,101348.41
2023-06-28T03:18:51.496Z,101341.91
2023-06-28T03:21:39.431Z,101348.84
2023-06-28T03:24:26.106Z,101356.69
2023-06-28T03:27:13.240Z,101355.56
2023-06-28T03:30:00.659Z,101355.38
2023-06-28T03:32:48.238Z,101352.03
2023-06-28T03:35:34.742Z,101351.38
2023-06-28T03:38:22.013Z,101347.28
2023-06-28T03:41:08.193Z,101343.09
2023-06-28T03:43:54.714Z,101342.75
2023-06-28T03:46:41.631Z,101342.19
2023-06-28T03:49:29.031Z,101340.31
2023-06-28T03:52:15.164Z,101344.53
2023-06-28T03:55:05.074Z,101346.91
2023-06-28T03:57:51.817Z,101348.19
2023-06-28T04:00:38.055Z,101344.84
2023-06-28T04:03:24.444Z,101346.50
2023-06-28T04:06:10.662Z,101341.63
2023-06-28T04:08:56.553Z,101341.53
2023-06-28T04:11:43.733Z,101343.50
2023-06-28T04:14:30.946Z,101337.66
2023-06-28T04:17:17.260Z,101346.88
2023-06-28T04:20:06.160Z,101346.88
2023-06-28T04:22:52.395Z,101348.56
2023-06-28T04:25:38.888Z,101351.25
2023-06-28T04:28:26.418Z,101348.00
2023-06-28T04:31:12.563Z,101349.50
2023-06-28T04:33:58.896Z,101345.78
2023-06-28T04:36:45.612Z,101351.00
2023-06-28T04:39:31.746Z,101353.34
2023-06-28T04:42:17.771Z,101357.41
2023-06-28T04:45:07.458Z,101354.50
2023-06-28T04:47:56.462Z,101346.66
2023-06-28T04:50:43.390Z,101340.09
2023-06-28T04:53:29.721Z,101347.59
2023-06-28T04:56:16.434Z,101352.06
2023-06-28T04:59:02.723Z,101351.72
2023-06-28T05:01:50.026Z,101347.78
2023-06-28T05:04:36.850Z,101349.84
2023-06-28T05:07:23.290Z,101343.09
2023-06-28T05:10:10.538Z,101347.91
2023-06-28T05:12:56.713Z,101351.69
2023-06-28T05:15:42.505Z,101348.78
2023-06-28T05:18:29.794Z,101349.41
2023-06-28T05:21:15.786Z,101350.94
2023-06-28T05:24:01.544Z,101350.50
2023-06-28T05:26:47.487Z,101345.75
2023-06-28T05:29:33.646Z,101343.44
2023-06-28T05:32:20.034Z,101347.19
2023-06-28T05:35:10.493Z,101344.69
2023-06-28T05:37:56.582Z,101340.91
2023-06-28T05:40:42.966Z,101347.97
2023-06-28T05:43:30.372Z,101343.00
2023-06-28T05:46:17.270Z,101343.22
2023-06-28T05:49:09.618Z,101344.81
2023-06-28T05:51:56.915Z,101348.41
2023-06-28T05:54:43.262Z,101349.66
2023-06-28T05:57:29.246Z,101340.81
2023-06-28T06:00:15.904Z,101331.06
2023-06-28T06:03:02.187Z,101338.94
2023-06-28T06:05:48.602Z,101334.47
2023-06-28T06:08:35.733Z,101330.72
2023-06-28T06:11:21.578Z,101332.34
2023-06-28T06:14:07.463Z,101331.13
2023-06-28T06:16:55.383Z,101330.03
2023-06-28T06:19:41.308Z,101331.81
2023-06-28T06:22:27.502Z,101344.38
2023-06-28T06:25:14.888Z,101346.19
2023-06-28T06:28:01.203Z,101338.06
2023-06-28T06:30:47.845Z,101336.78
2023-06-28T06:33:36.279Z,101334.69
2023-06-28T06:36:22.302Z,101331.22
2023-06-28T06:39:09.018Z,101336.78
2023-06-28T06:41:56.271Z,101336.09
2023-06-28T06:44:43.832Z,101339.88
2023-06-28T06:47:29.988Z,101343.44
2023-06-28T06:50:18.550Z,101345.84
2023-06-28T06:53:04.688Z,101349.50
2023-06-28T06:55:51.009Z,101344.97
2023-06-28T06:58:38.749Z,101354.22
2023-06-28T07:01:24.928Z,101357.50
2023-06-28T07:04:11.306Z,101350.13
2023-06-28T07:06:57.121Z,101357.50
2023-06-28T07:09:43.464Z,101356.91
2023-06-28T07:12:29.492Z,101363.38
2023-06-28T07:15:16.936Z,101361.28
2023-06-28T07:18:03.394Z,101363.38
2023-06-28T07:20:49.991Z,101368.28
2023-06-28T07:23:35.915Z,101375.97
2023-06-28T07:26:22.130Z,101369.44
2023-06-28T07:29:08.384Z,101359.31
2023-06-28T07:31:55.782Z,101368.03
2023-06-28T07:34:41.970Z,101371.28
2023-06-28T07:37:28.093Z,101366.66
2023-06-28T07:40:14.925Z,101368.50
2023-06-28T07:43:03.745Z,101370.94
2023-06-28T07:45:50.151Z,101371.09
2023-06-28T07:48:38.421Z,101368.63
2023-06-28T07:51:24.296Z,101361.03
2023-06-28T07:54:20.351Z,101366.66
2023-06-28T07:57:14.907Z,101362.41
2023-06-28T08:00:00.847Z,101368.16
2023-06-28T08:02:47.029Z,101362.88
2023-06-28T08:05:34.590Z,101366.88
2023-06-28T08:08:20.891Z,101362.31
2023-06-28T08:11:07.369Z,101367.31
2023-06-28T08:13:53.322Z,101364.16
2023-06-28T08:16:39.304Z,101360.13
2023-06-28T08:19:26.124Z,101366.97
2023-06-28T08:22:13.812Z,101368.97
2023-06-28T08:24:59.871Z,101367.03
2023-06-28T08:27:46.138Z,101359.56
2023-06-28T08:30:31.965Z,101369.38
2023-06-28T08:33:18.160Z,101362.28
2023-06-28T08:36:04.689Z,101369.34
2023-06-28T08:38:54.320Z,101358.53
2023-06-28T08:41:40.598Z,101363.41
2023-06-28T08:44:28.023Z,101361.38
2023-06-28T08:47:14.521Z,101358.06
2023-06-28T08:50:00.656Z,101353.03
2023-06-28T08:52:47.637Z,101342.53
2023-06-28T08:55:34.977Z,101339.41
2023-06-28T08:58:22.097Z,101342.09
2023-06-28T09:01:08.445Z,101337.72
2023-06-28T09:03:54.570Z,101349.44
2023-06-28T09:06:40.628Z,101344.66
2023-06-28T09:09:27.740Z,101334.97
2023-06-28T09:12:18.040Z,101344.16
2023-06-28T09:15:04.786Z,101337.94
2023-06-28T09:17:50.863Z,101336.25
2023-06-28T09:20:37.885Z,101342.38
2023-06-28T09:23:25.090Z,101345.31
2023-06-28T09:26:11.946Z,101330.22
2023-06-28T09:29:02.328Z,101346.31
2023-06-28T09:31:51.022Z,101339.91
2023-06-28T09:34:37.949Z,101339.41
2023-06-28T09:37:24.804Z,101341.03
2023-06-28T09:40:11.260Z,101342.00
2023-06-28T09:42:57.430Z,101349.16
2023-06-28T09:45:45.237Z,101338.59
2023-06-28T09:48:37.589Z,101347.16
2023-06-28T09:51:23.459Z,101344.69
2023-06-28T09:54:09.364Z,101344.53
2023-06-28T09:56:55.363Z,101346.75
2023-06-28T09:59:41.931Z,101345.63
2023-06-28T10:02:29.317Z,101344.28
2023-06-28T10:05:15.688Z,101346.28
2023-06-28T10:08:03.297Z,101343.78
2023-06-28T10:10:49.635Z,101340.06
2023-06-28T10:13:36.065Z,101330.78
2023-06-28T10:16:26.565Z,101331.56
2023-06-28T10:19:14.150Z,101321.72
2023-06-28T10:22:00.786Z,101326.78
2023-06-28T10:24:47.742Z,101326.34
2023-06-28T10:27:35.040Z,101328.34
2023-06-28T10:30:21.985Z,101331.25
2023-06-28T10:33:08.391Z,101334.50
2023-06-28T10:35:56.769Z,101328.91
2023-06-28T10:38:44.469Z,101327.97
2023-06-28T10:41:30.610Z,101328.53
2023-06-28T10:44:17.215Z,101337.19
2023-06-28T10:47:10.007Z,101335.28
2023-06-28T10:50:09.979Z,101327.53
2023-06-28T10:52:58.217Z,101325.16
2023-06-28T10:56:08.149Z,101327.31
2023-06-28T10:58:57.025Z,101334.34
2023-06-28T11:01:54.180Z,101336.91
2023-06-28T11:04:51.699Z,101335.81
2023-06-28T11:07:42.641Z,101338.50
2023-06-28T11:10:38.229Z,101335.91
2023-06-28T11:13:36.394Z,101336.53
2023-06-28T11:16:24.636Z,101324.78
2023-06-28T11:19:16.111Z,101325.69
2023-06-28T11:22:04.148Z,101323.44
2023-06-28T11:24:50.591Z,101317.34
2023-06-28T11:27:42.362Z,101315.63
2023-06-28T11:30:49.135Z,101308.63
2023-06-28T11:33:39.059Z,101313.81
2023-06-28T11:36:28.603Z,101316.06
2023-06-28T11:39:18.857Z,101325.13
2023-06-28T11:42:07.657Z,101321.97
2023-06-28T11:44:55.920Z,101311.88
2023-06-28T11:47:42.050Z,101316.69
2023-06-28T11:50:29.474Z,101316.13
2023-06-28T11:53:20.594Z,101320.75
2023-06-28T11:56:07.648Z,101312.56
2023-06-28T11:58:55.380Z,101310.91
2023-06-28T12:01:42.973Z,101317.53
2023-06-28T12:04:29.227Z,101310.00
2023-06-28T12:07:15.736Z,101315.66
2023-06-28T12:10:01.467Z,101312.53
2023-06-28T12:12:47.506Z,101312.53
2023-06-28T12:15:33.682Z,101316.19
2023-06-28T12:18:20.893Z,101312.09
2023-06-28T12:21:19.985Z,101316.50
2023-06-28T12:24:13.563Z,101305.44
2023-06-28T12:27:00.611Z,101304.50
2023-06-28T12:29:46.614Z,101309.19
2023-06-28T12:32:32.930Z,101309.25
2023-06-28T12:35:24.741Z,101305.53
2023-06-28T12:38:21.661Z,101303.38
2023-06-28T12:41:08.476Z,101296.66
2023-06-28T12:43:58.846Z,101302.19
2023-06-28T12:46:44.645Z,101292.94
2023-06-28T12:49:38.549Z,101295.53
2023-06-28T12:52:26.815Z,101299.28
2023-06-28T12:55:13.650Z,101297.97
2023-06-28T12:58:00.044Z,101297.06
2023-06-28T13:00:47.161Z,101298.09
2023-06-28T13:03:33.757Z,101298.19
2023-06-28T13:06:19.776Z,101303.88
2023-06-28T13:09:07.348Z,101296.00
2023-06-28T13:11:53.391Z,101294.63
2023-06-28T13:14:39.458Z,101305.06
2023-06-28T13:17:25.812Z,101298.09
2023-06-28T13:20:13.746Z,101299.97
2023-06-28T13:23:00.171Z,101299.44
2023-06-28T13:25:48.734Z,101307.84
2023-06-28T13:28:34.609Z,101301.75
2023-06-28T13:31:20.682Z,101301.41
2023-06-28T13:34:06.822Z,101305.81
2023-06-28T13:36:52.715Z,101308.16
2023-06-28T13:39:38.536Z,101305.91
2023-06-28T13:42:26.248Z,101308.81
2023-06-28T13:45:13.143Z,101308.63
2023-06-28T13:47:59.657Z,101311.19
2023-06-28T13:50:48.101Z,101310.69
2023-06-28T13:53:34.107Z,101312.34
2023-06-28T13:56:19.899Z,101306.31
2023-06-28T13:59:07.154Z,101308.09
2023-06-28T14:01:53.346Z,101301.38
2023-06-28T14:04:39.701Z,101303.16
2023-06-28T14:07:25.654Z,101295.78
2023-06-28T14:10:12.286Z,101307.03
2023-06-28T14:12:58.491Z,101294.78
2023-06-28T14:15:45.836Z,101302.84
2023-06-28T14:18:31.905Z,101299.19
2023-06-28T14:21:17.787Z,101293.09
2023-06-28T14:24:03.790Z,101298.56
2023-06-28T14:26:53.313Z,101291.56
2023-06-28T14:29:39.342Z,101297.03
2023-06-28T14:32:26.542Z,101290.69
2023-06-28T14:35:12.978Z,101279.63
2023-06-28T14:38:03.728Z,101285.50
2023-06-28T14:40:49.965Z,101288.53
2023-06-28T14:43:35.815Z,101291.03
2023-06-28T14:46:21.684Z,101286.06
2023-06-28T14:49:09.075Z,101278.63
2023-06-28T14:51:55.698Z,101281.06
2023-06-28T14:54:42.225Z,101280.16
2023-06-28T14:57:28.044Z,101281.25
2023-06-28T15:00:14.705Z,101272.53
2023-06-28T15:03:00.992Z,101273.41
2023-06-28T15:05:48.411Z,101273.13
2023-06-28T15:08:34.754Z,101274.84
2023-06-28T15:11:20.592Z,101268.19
2023-06-28T15:14:08.424Z,101275.50
2023-06-28T15:16:55.286Z,101260.75
2023-06-28T15:19:41.724Z,101266.13
2023-06-28T15:22:29.341Z,101261.38
2023-06-28T15:25:15.855Z,101264.22
2023-06-28T15:28:01.799Z,101265.56
2023-06-28T15:30:47.979Z,101263.97
2023-06-28T15:33:34.191Z,101265.44
2023-06-28T15:36:20.234Z,101254.34
2023-06-28T15:39:07.597Z,101249.28
2023-06-28T15:41:53.859Z,101254.53
2023-06-28T15:44:41.313Z,101257.34
2023-06-28T15:47:27.482Z,101249.38
2023-06-28T15:50:13.674Z,101254.09
2023-06-28T15:52:59.791Z,101252.50
2023-06-28T15:55:47.108Z,101249.50
2023-06-28T15:58:32.987Z,101241.34
2023-06-28T16:01:20.098Z,101242.75
2023-06-28T16:04:06.520Z,101236.78
2023-06-28T16:06:52.869Z,101231.28
2023-06-28T16:09:39.213Z,101234.03
2023-06-28T16:12:26.463Z,101236.78
2023-06-28T16:15:12.667Z,101233.72
2023-06-28T16:17:59.381Z,101235.13
2023-06-28T16:20:45.792Z,101238.38
2023-06-28T16:23:32.124Z,101246.91
2023-06-28T16:26:17.949Z,101247.19
2023-06-28T16:29:05.274Z,101249.44
2023-06-28T16:31:51.196Z,101253.00
2023-06-28T16:34:37.067Z,101240.34
2023-06-28T16:37:23.134Z,101247.47
2023-06-28T16:40:10.536Z,101243.94
2023-06-28T16:42:56.573Z,101239.53
2023-06-28T16:45:44.683Z,101239.84
2023-06-28T16:48:31.261Z,101244.50
2023-06-28T16:51:19.292Z,101248.34
2023-06-28T16:54:05.115Z,101252.19
2023-06-28T16:56:51.261Z,101243.41
2023-06-28T16:59:37.308Z,101248.41
2023-06-28T17:02:24.553Z,101249.47
2023-06-28T17:05:10.971Z,101243.16
2023-06-28T17:07:56.773Z,101247.84
2023-06-28T17:10:42.861Z,101250.59
2023-06-28T17:13:29.233Z,101247.56
2023-06-28T17:16:15.142Z,101246.75
2023-06-28T17:19:02.403Z,101244.56
2023-06-28T17:21:48.711Z,101247.28
2023-06-28T17:24:34.519Z,101253.88
2023-06-28T17:27:21.246Z,101245.09
2023-06-28T17:30:08.976Z,101250.88
2023-06-28T17:32:55.403Z,101243.19
2023-06-28T17:35:43.360Z,101251.69
2023-06-28T17:38:29.661Z,101243.41
2023-06-28T17:41:15.524Z,101250.22
2023-06-28T17:44:01.612Z,101247.19
2023-06-28T17:46:48.053Z,101248.84
2023-06-28T17:49:34.534Z,101246.09
2023-06-28T17:52:21.776Z,101241.72
2023-06-28T17:55:08.552Z,101239.47
2023-06-28T17:57:54.792Z,101238.94
2023-06-28T18:00:40.791Z,101243.84
2023-06-28T18:03:27.063Z,101242.72
2023-06-28T18:06:13.382Z,101241.66
2023-06-28T18:09:01.213Z,101252.31
2023-06-28T18:11:47.301Z,101250.38
2023-06-28T18:14:34.630Z,101249.56
2023-06-28T18:17:20.559Z,101248.44
2023-06-28T18:20:07.662Z,101252.47
2023-06-28T18:22:53.405Z,101249.44
2023-06-28T18:25:40.729Z,101249.44
2023-06-28T18:28:27.007Z,101249.63
2023-06-28T18:31:13.006Z,101254.59
2023-06-28T18:33:59.211Z,101248.53
2023-06-28T18:36:44.945Z,101257.22
2023-06-28T18:39:30.885Z,101256.63
2023-06-28T18:42:18.198Z,101264.19
2023-06-28T18:45:04.936Z,101259.00
2023-06-28T18:47:51.810Z,101257.31
2023-06-28T18:50:38.400Z,101255.34
2023-06-28T18:53:24.309Z,101253.94
2023-06-28T18:56:10.284Z,101255.03
2023-06-28T18:58:57.809Z,101261.28
2023-06-28T19:01:43.845Z,101257.41
2023-06-28T19:04:29.737Z,101258.16
2023-06-28T19:07:16.254Z,101254.50
2023-06-28T19:10:02.751Z,101257.75
2023-06-28T19:12:48.676Z,101258.00
2023-06-28T19:15:36.316Z,101256.44
2023-06-28T19:18:23.491Z,101264.22
2023-06-28T19:21:11.119Z,101268.56
2023-06-28T19:23:57.251Z,101266.28
2023-06-28T19:26:45.626Z,101270.06
2023-06-28T19:29:31.443Z,101271.16
2023-06-28T19:32:18.962Z,101266.25
2023-06-28T19:35:05.062Z,101265.19
2023-06-28T19:37:52.480Z,101266.69
2023-06-28T19:40:38.622Z,101264.81
2023-06-28T19:43:24.561Z,101266.25
2023-06-28T19:46:10.809Z,101263.44
2023-06-28T19:48:58.336Z,101269.66
2023-06-28T19:51:44.321Z,101265.59
2023-06-28T19:54:30.227Z,101260.81
2023-06-28T19:57:17.188Z,101265.56
2023-06-28T20:00:03.465Z,101258.97
2023-06-28T20:02:59.757Z,101263.28
2023-06-28T20:05:47.408Z,101256.88
2023-06-28T20:08:33.888Z,101265.84
2023-06-28T20:11:20.102Z,101261.13
2023-06-28T20:14:06.951Z,101259.72
2023-06-28T20:16:53.665Z,101267.03
2023-06-28T20:19:39.604Z,101270.84
2023-06-28T20:22:27.297Z,101276.09
2023-06-28T20:25:13.499Z,101276.31
2023-06-28T20:27:59.732Z,101273.00
2023-06-28T20:30:46.151Z,101271.78
2023-06-28T20:33:32.034Z,101267.22
2023-06-28T20:36:17.997Z,101264.41
2023-06-28T20:39:05.601Z,101269.56
2023-06-28T20:41:51.741Z,101268.34
2023-06-28T20:44:42.448Z,101274.88
2023-06-28T20:47:32.762Z,101263.38
2023-06-28T20:50:19.021Z,101269.31
2023-06-28T20:53:05.038Z,101266.13
2023-06-28T20:55:52.655Z,101268.25
2023-06-28T20:58:38.584Z,101265.41
2023-06-28T21:01:24.537Z,101274.56
2023-06-28T21:04:10.914Z,101277.84
2023-06-28T21:06:58.545Z,101275.44
2023-06-28T21:09:44.807Z,101280.75
2023-06-28T21:12:33.189Z,101278.38
2023-06-28T21:15:19.048Z,101282.56
2023-06-28T21:18:06.821Z,101274.88
2023-06-28T21:20:53.231Z,101278.00
2023-06-28T21:23:40.637Z,101283.16
2023-06-28T21:26:27.289Z,101281.31
2023-06-28T21:29:14.731Z,101280.16
2023-06-28T21:32:00.982Z,101275.22
2023-06-28T21:34:46.768Z,101278.00
2023-06-28T21:37:32.705Z,101276.94
2023-06-28T21:40:18.835Z,101269.00
2023-06-28T21:43:04.873Z,101275.53
2023-06-28T21:45:52.291Z,101267.78
2023-06-28T21:48:38.492Z,101262.06
2023-06-28T21:51:24.796Z,101266.69
2023-06-28T21:54:10.636Z,101262.97
2023-06-28T21:56:56.878Z,101263.41
2023-06-28T21:59:43.042Z,101263.28
2023-06-28T22:02:30.318Z,101268.94
2023-06-28T22:05:16.605Z,101266.47
2023-06-28T22:08:02.876Z,101261.63
2023-06-28T22:10:49.201Z,101259.94
2023-06-28T22:13:35.290Z,101262.25
2023-06-28T22:16:21.212Z,101260.78
2023-06-28T22:19:10.406Z,101259.94
2023-06-28T22:21:56.510Z,101259.34
2023-06-28T22:24:42.527Z,101255.38
2023-06-28T22:27:28.565Z,101261.13
2023-06-28T22:30:15.299Z,101252.41
2023-06-28T22:33:01.639Z,101255.13
2023-06-28T22:35:49.567Z,101262.63
2023-06-28T22:38:47.576Z,101258.88
2023-06-28T22:41:37.549Z,101260.38
2023-06-28T22:44:23.361Z,101264.34
2023-06-28T22:47:10.173Z,101255.38
2023-06-28T22:49:56.527Z,101258.44
2023-06-28T22:52:45.499Z,101256.25
2023-06-28T22:55:31.902Z,101260.38
2023-06-28T22:58:17.999Z,101264.28
2023-06-28T23:01:03.714Z,101258.94
2023-06-28T23:03:49.670Z,101257.28
2023-06-28T23:06:40.117Z,101246.09
2023-06-28T23:09:28.527Z,101254.59
2023-06-28T23:12:15.307Z,101260.78
2023-06-28T23:15:02.381Z,101256.25
2023-06-28T23:17:50.317Z,101260.88
2023-06-28T23:20:38.315Z,101256.81
2023-06-28T23:23:25.266Z,101270.69
2023-06-28T23:26:13.916Z,101256.81
2023-06-28T23:29:00.412Z,101259.72
2023-06-28T23:31:46.538Z,101250.47
2023-06-28T23:34:32.694Z,101253.91
2023-06-28T23:37:18.890Z,101250.38
2023-06-28T23:40:09.906Z,101246.91
2023-06-28T23:42:58.136Z,101244.34
2023-06-28T23:45:46.107Z,101245.47
2023-06-28T23:48:34.921Z,101248.31
2023-06-28T23:51:21.882Z,101239.84
2023-06-28T23:54:11.303Z,101240.91
2023-06-28T23:56:59.926Z,101241.91
2023-06-28T23:59:47.505Z,101234.59
